createdAt,value
2018-04-16T00:00:18.566Z,17.70
2018-04-16T00:02:46.149Z,16.07
2018-04-16T00:05:13.741Z,15.13
2018-04-16T00:07:41.322Z,20.60
2018-04-16T00:10:08.907Z,17.40
2018-04-16T00:12:36.489Z,18.03
2018-04-16T00:15:04.073Z,19.00
2018-04-16T00:17:31.656Z,18.80
2018-04-16T00:19:59.236Z,19.10
2018-04-16T00:22:26.820Z,18.37
2018-04-16T00:24:54.438Z,18.87
2018-04-16T00:27:22.829Z,20.40
2018-04-16T00:29:50.416Z,18.87
2018-04-16T00:32:24.642Z,21.20
2018-04-16T00:34:57.833Z,24.70
2018-04-16T00:37:32.057Z,20.17
2018-04-16T00:43:04.343Z,25.50
2018-04-16T00:45:37.534Z,28.03
2018-04-16T00:48:10.779Z,25.03
2018-04-16T00:50:44.069Z,31.17
2018-04-16T00:53:17.243Z,23.40
2018-04-16T00:55:50.424Z,24.07
2018-04-16T00:58:23.650Z,37.13
2018-04-16T01:00:56.837Z,30.63
2018-04-16T01:03:30.266Z,29.47
2018-04-16T01:06:03.397Z,26.70
2018-04-16T01:08:36.589Z,26.77
2018-04-16T01:11:09.833Z,28.83
2018-04-16T01:13:42.981Z,34.57
2018-04-16T01:16:16.293Z,30.10
2018-04-16T01:18:49.409Z,35.13
2018-04-16T01:21:22.717Z,28.53
2018-04-16T01:23:56.123Z,29.07
2018-04-16T01:26:29.461Z,37.20
2018-04-16T01:29:02.810Z,30.37
2018-04-16T01:31:36.025Z,33.50
2018-04-16T01:34:09.321Z,32.67
2018-04-16T01:36:42.432Z,32.03
2018-04-16T01:39:15.685Z,36.00
2018-04-16T01:41:48.945Z,30.47
2018-04-16T01:44:22.257Z,36.70
2018-04-16T01:46:55.654Z,33.00
2018-04-16T01:49:28.917Z,31.43
2018-04-16T01:52:02.090Z,30.90
2018-04-16T01:54:35.377Z,32.03
2018-04-16T01:57:08.574Z,34.20
2018-04-16T01:59:41.765Z,29.23
2018-04-16T02:02:14.957Z,28.50
2018-04-16T02:04:48.154Z,32.60
2018-04-16T02:07:21.341Z,37.17
2018-04-16T02:09:54.501Z,37.53
2018-04-16T02:12:27.749Z,31.73
2018-04-16T02:15:00.934Z,36.53
2018-04-16T02:17:33.932Z,34.17
2018-04-16T02:20:07.101Z,33.07
2018-04-16T02:22:40.335Z,30.73
2018-04-16T02:25:13.485Z,35.97
2018-04-16T02:30:50.830Z,36.73
2018-04-16T02:33:24.017Z,35.73
2018-04-16T02:35:58.062Z,35.97
2018-04-16T02:38:31.176Z,30.23
2018-04-16T02:41:04.445Z,34.13
2018-04-16T02:43:37.620Z,35.10
2018-04-16T02:46:10.805Z,34.33
2018-04-16T02:48:43.925Z,32.37
2018-04-16T02:51:17.166Z,34.80
2018-04-16T02:53:50.457Z,39.33
2018-04-16T02:59:24.277Z,33.47
2018-04-16T03:01:57.597Z,35.97
2018-04-16T03:04:30.882Z,32.17
2018-04-16T03:07:04.169Z,33.50
2018-04-16T03:09:37.565Z,32.47
2018-04-16T03:12:10.734Z,31.50
2018-04-16T03:14:44.005Z,35.67
2018-04-16T03:17:17.204Z,32.37
2018-04-16T03:19:50.541Z,34.43
2018-04-16T03:22:23.758Z,30.27
2018-04-16T03:24:56.925Z,34.30
2018-04-16T03:27:30.019Z,43.93
2018-04-16T03:30:03.214Z,36.53
2018-04-16T03:32:36.532Z,40.37
2018-04-16T03:35:09.841Z,41.00
2018-04-16T03:37:43.161Z,41.30
2018-04-16T03:40:16.245Z,43.93
2018-04-16T03:42:49.401Z,31.23
2018-04-16T03:45:22.570Z,41.37
2018-04-16T03:47:55.754Z,37.70
2018-04-16T03:50:29.002Z,36.30
2018-04-16T03:53:02.117Z,32.70
2018-04-16T03:55:35.307Z,35.90
2018-04-16T03:58:02.901Z,39.60
2018-04-16T04:00:30.502Z,42.00
2018-04-16T04:02:58.114Z,36.67
2018-04-16T04:05:25.725Z,42.97
2018-04-16T04:07:53.306Z,42.13
2018-04-16T04:10:20.918Z,33.13
2018-04-16T04:12:49.393Z,33.53
2018-04-16T04:15:17.756Z,31.10
2018-04-16T04:17:46.190Z,34.00
2018-04-16T04:20:13.826Z,38.27
2018-04-16T04:22:53.198Z,36.70
2018-04-16T04:25:32.513Z,31.63
2018-04-16T04:28:11.781Z,38.07
2018-04-16T04:30:39.393Z,37.13
2018-04-16T04:33:06.972Z,34.23
2018-04-16T04:35:34.581Z,33.80
2018-04-16T04:38:02.993Z,37.70
2018-04-16T04:40:31.475Z,40.27
2018-04-16T04:42:59.867Z,36.20
2018-04-16T04:45:28.274Z,35.97
2018-04-16T04:47:56.794Z,37.97
2018-04-16T04:50:25.237Z,37.50
2018-04-16T04:52:53.757Z,41.77
2018-04-16T04:55:21.336Z,40.70
2018-04-16T04:57:48.920Z,46.03
2018-04-16T05:00:16.532Z,45.23
2018-04-16T05:02:44.217Z,43.60
2018-04-16T05:05:12.647Z,42.90
2018-04-16T05:07:41.777Z,44.33
2018-04-16T05:10:10.222Z,45.90
2018-04-16T05:12:38.610Z,45.17
2018-04-16T05:15:06.194Z,43.03
2018-04-16T05:17:33.825Z,41.60
2018-04-16T05:20:01.417Z,55.17
2018-04-16T05:22:29.050Z,54.23
2018-04-16T05:24:56.684Z,47.37
2018-04-16T05:27:24.265Z,50.80
2018-04-16T05:29:51.891Z,48.07
2018-04-16T05:32:19.570Z,45.30
2018-04-16T05:34:47.150Z,43.07
2018-04-16T05:37:15.517Z,44.57
2018-04-16T05:39:44.022Z,44.37
2018-04-16T05:42:11.607Z,47.33
2018-04-16T05:44:39.264Z,49.70
2018-04-16T05:47:06.846Z,40.83
2018-04-16T05:49:34.424Z,48.03
2018-04-16T05:52:02.001Z,45.00
2018-04-16T05:54:29.629Z,49.70
2018-04-16T05:56:57.265Z,51.53
2018-04-16T05:59:24.858Z,55.27
2018-04-16T06:01:52.443Z,60.20
2018-04-16T06:04:20.880Z,47.40
2018-04-16T06:06:48.469Z,55.23
2018-04-16T06:09:16.100Z,54.47
2018-04-16T06:11:43.766Z,60.63
2018-04-16T06:14:12.132Z,49.00
2018-04-16T06:16:39.712Z,57.20
2018-04-16T06:19:07.301Z,67.73
2018-04-16T06:21:34.914Z,65.07
2018-04-16T06:24:02.500Z,58.10
2018-04-16T06:26:30.085Z,56.27
2018-04-16T06:28:57.833Z,56.90
2018-04-16T06:31:25.413Z,61.67
2018-04-16T06:33:53.021Z,56.40
2018-04-16T06:36:21.415Z,68.10
2018-04-16T06:38:52.392Z,57.20
2018-04-16T06:41:19.970Z,58.23
2018-04-16T06:43:47.585Z,60.47
2018-04-16T06:46:16.061Z,59.43
2018-04-16T06:48:43.685Z,52.90
2018-04-16T06:51:12.061Z,60.37
2018-04-16T06:53:39.642Z,61.93
2018-04-16T06:56:08.153Z,67.77
2018-04-16T06:58:35.781Z,54.17
2018-04-16T07:01:04.219Z,66.40
2018-04-16T07:03:31.848Z,62.43
2018-04-16T07:05:59.471Z,56.50
2018-04-16T07:08:27.876Z,57.23
2018-04-16T07:10:55.561Z,56.77
2018-04-16T07:13:23.922Z,50.03
2018-04-16T07:15:52.314Z,56.63
2018-04-16T07:18:19.904Z,58.17
2018-04-16T07:20:49.924Z,64.33
2018-04-16T07:23:18.785Z,64.87
2018-04-16T07:25:47.218Z,69.43
2018-04-16T07:28:15.808Z,57.77
2018-04-16T07:30:44.336Z,54.53
2018-04-16T07:33:11.929Z,62.67
2018-04-16T07:35:40.458Z,67.80
2018-04-16T07:38:08.099Z,62.67
2018-04-16T07:40:36.664Z,61.20
2018-04-16T07:43:04.289Z,67.50
2018-04-16T07:45:31.873Z,62.80
2018-04-16T07:47:59.518Z,62.70
2018-04-16T07:50:29.234Z,61.40
2018-04-16T07:52:56.817Z,65.07
2018-04-16T07:55:24.401Z,62.70
2018-04-16T07:57:51.980Z,68.20
2018-04-16T08:00:19.560Z,64.23
2018-04-16T08:02:47.182Z,58.57
2018-04-16T08:05:15.574Z,66.10
2018-04-16T08:07:43.227Z,70.50
2018-04-16T08:10:11.611Z,69.83
2018-04-16T08:12:40.017Z,80.20
2018-04-16T08:15:07.702Z,75.80
2018-04-16T08:17:35.326Z,71.63
2018-04-16T08:20:02.936Z,66.67
2018-04-16T08:22:30.521Z,63.60
2018-04-16T08:24:58.110Z,69.43
2018-04-16T08:27:26.629Z,62.30
2018-04-16T08:29:54.258Z,64.10
2018-04-16T08:32:21.890Z,77.70
2018-04-16T08:34:49.673Z,69.00
2018-04-16T08:37:17.298Z,67.73
2018-04-16T08:39:45.730Z,71.60
2018-04-16T08:42:14.244Z,65.37
2018-04-16T08:44:41.909Z,68.87
2018-04-16T08:47:09.498Z,69.87
2018-04-16T08:49:37.136Z,69.17
2018-04-16T08:52:04.730Z,67.37
2018-04-16T08:54:32.323Z,56.00
2018-04-16T08:57:00.820Z,63.83
2018-04-16T08:59:28.457Z,70.17
2018-04-16T09:01:56.045Z,67.30
2018-04-16T09:04:23.674Z,62.13
2018-04-16T09:06:51.269Z,57.67
2018-04-16T09:09:19.752Z,65.90
2018-04-16T09:11:47.507Z,63.93
2018-04-16T09:14:15.098Z,70.97
2018-04-16T09:16:42.683Z,67.00
2018-04-16T09:19:10.297Z,57.07
2018-04-16T09:21:37.881Z,63.60
2018-04-16T09:24:05.472Z,59.00
2018-04-16T09:26:33.054Z,67.87
2018-04-16T09:29:01.570Z,63.07
2018-04-16T09:31:29.151Z,61.10
2018-04-16T09:33:56.740Z,57.87
2018-04-16T09:36:24.325Z,55.77
2018-04-16T09:38:51.934Z,71.60
2018-04-16T09:41:19.529Z,51.63
2018-04-16T09:43:48.074Z,56.63
2018-04-16T09:46:16.550Z,63.37
2018-04-16T09:48:44.153Z,57.60
2018-04-16T09:51:11.744Z,58.80
2018-04-16T09:53:39.498Z,55.00
2018-04-16T09:56:07.453Z,62.10
2018-04-16T09:58:35.096Z,52.20
2018-04-16T10:01:03.180Z,57.33
2018-04-16T10:03:32.372Z,57.30
2018-04-16T10:06:00.827Z,60.23
2018-04-16T10:08:29.661Z,55.23
2018-04-16T10:10:57.647Z,58.00
2018-04-16T10:13:25.233Z,64.80
2018-04-16T10:15:52.817Z,51.30
2018-04-16T10:18:20.431Z,56.93
2018-04-16T10:20:48.013Z,59.63
2018-04-16T10:23:16.226Z,57.97
2018-04-16T10:25:43.881Z,58.80
2018-04-16T10:28:11.465Z,59.27
2018-04-16T10:30:39.137Z,59.77
2018-04-16T10:33:06.745Z,54.80
2018-04-16T10:35:34.332Z,59.53
2018-04-16T10:38:01.915Z,48.40
2018-04-16T10:40:29.548Z,54.03
2018-04-16T10:42:57.114Z,56.40
2018-04-16T10:45:26.513Z,53.27
2018-04-16T10:47:54.093Z,54.23
2018-04-16T10:50:22.538Z,50.40
2018-04-16T10:52:50.898Z,49.40
2018-04-16T10:55:19.480Z,56.20
2018-04-16T10:57:47.185Z,53.73
2018-04-16T11:00:14.845Z,47.37
2018-04-16T11:02:42.508Z,45.37
2018-04-16T11:05:10.100Z,52.60
2018-04-16T11:07:38.126Z,44.00
2018-04-16T11:10:06.626Z,40.73
2018-04-16T11:12:34.253Z,49.57
2018-04-16T11:15:01.855Z,49.13
2018-04-16T11:17:29.487Z,45.80
2018-04-16T11:19:57.173Z,47.37
2018-04-16T11:22:24.837Z,45.67
2018-04-16T11:24:52.453Z,41.03
2018-04-16T11:27:20.116Z,46.33
2018-04-16T11:29:47.701Z,41.90
2018-04-16T11:32:16.392Z,46.23
2018-04-16T11:34:44.013Z,39.70
2018-04-16T11:37:12.409Z,43.20
2018-04-16T11:39:40.954Z,42.27
2018-04-16T11:42:08.597Z,40.23
2018-04-16T11:44:36.178Z,49.03
2018-04-16T11:47:03.822Z,39.80
2018-04-16T11:49:31.489Z,42.73
2018-04-16T11:51:59.154Z,41.43
2018-04-16T11:54:26.781Z,38.50
2018-04-16T11:56:54.370Z,42.87
2018-04-16T11:59:21.986Z,37.67
2018-04-16T12:01:49.577Z,40.50
2018-04-16T12:04:17.229Z,37.43
2018-04-16T12:06:44.781Z,36.97
2018-04-16T12:09:12.408Z,43.87
2018-04-16T12:11:39.991Z,42.80
2018-04-16T12:14:07.608Z,41.60
2018-04-16T12:16:35.353Z,33.57
2018-04-16T12:19:02.920Z,35.63
2018-04-16T12:21:30.501Z,38.53
2018-04-16T12:23:58.157Z,36.70
2018-04-16T12:26:25.741Z,40.00
2018-04-16T12:28:54.033Z,39.50
2018-04-16T12:31:22.326Z,40.67
2018-04-16T12:33:49.936Z,38.37
2018-04-16T12:36:17.594Z,38.57
2018-04-16T12:38:45.189Z,41.73
2018-04-16T12:41:12.805Z,40.10
2018-04-16T12:43:40.390Z,38.20
2018-04-16T12:46:07.974Z,41.93
2018-04-16T12:48:35.555Z,36.47
2018-04-16T12:51:03.146Z,38.90
2018-04-16T12:53:32.944Z,39.43
2018-04-16T12:56:00.526Z,34.20
2018-04-16T12:58:28.109Z,32.80
2018-04-16T13:00:55.689Z,33.63
2018-04-16T13:03:23.270Z,35.60
2018-04-16T13:05:50.866Z,33.80
2018-04-16T13:08:18.469Z,31.30
2018-04-16T13:10:46.045Z,35.33
2018-04-16T13:13:13.626Z,38.33
2018-04-16T13:15:42.025Z,29.87
2018-04-16T13:18:09.609Z,35.93
2018-04-16T13:20:38.137Z,34.60
2018-04-16T13:23:05.749Z,33.73
2018-04-16T13:25:33.422Z,37.03
2018-04-16T13:28:01.037Z,37.33
2018-04-16T13:30:28.626Z,29.13
2018-04-16T13:32:56.209Z,27.47
2018-04-16T13:35:23.861Z,29.67
2018-04-16T13:37:51.446Z,29.57
2018-04-16T13:40:19.089Z,29.77
2018-04-16T13:42:46.681Z,27.47
2018-04-16T13:45:14.262Z,30.47
2018-04-16T13:47:41.842Z,26.23
2018-04-16T13:50:10.275Z,30.03
2018-04-16T13:52:37.916Z,29.13
2018-04-16T13:55:05.529Z,26.77
2018-04-16T13:57:33.816Z,23.83
2018-04-16T14:00:02.278Z,25.40
2018-04-16T14:02:29.863Z,29.20
2018-04-16T14:04:57.443Z,25.07
2018-04-16T14:07:25.025Z,27.27
2018-04-16T14:09:52.606Z,21.40
2018-04-16T14:12:20.978Z,24.23
2018-04-16T14:14:48.559Z,27.80
2018-04-16T14:17:16.142Z,20.27
2018-04-16T14:19:43.729Z,22.37
2018-04-16T14:22:11.406Z,23.43
2018-04-16T14:24:39.001Z,25.50
2018-04-16T14:27:06.628Z,24.90
2018-04-16T14:29:34.227Z,24.37
2018-04-16T14:32:01.830Z,26.33
2018-04-16T14:34:29.415Z,27.00
2018-04-16T14:36:57.798Z,23.90
2018-04-16T14:39:25.385Z,21.73
2018-04-16T14:41:53.017Z,21.83
2018-04-16T14:44:20.577Z,30.03
2018-04-16T14:46:48.159Z,27.10
2018-04-16T14:49:15.837Z,23.70
2018-04-16T14:51:43.454Z,27.70
2018-04-16T14:54:11.133Z,29.20
2018-04-16T14:56:38.726Z,25.73
2018-04-16T14:59:06.352Z,28.03
2018-04-16T15:01:34.042Z,36.40
2018-04-16T15:04:01.627Z,34.40
2018-04-16T15:06:29.212Z,33.60
2018-04-16T15:08:56.793Z,39.33
2018-04-16T15:11:24.381Z,33.90
2018-04-16T15:13:52.022Z,43.20
2018-04-16T15:16:19.614Z,31.40
2018-04-16T15:18:47.199Z,36.53
2018-04-16T15:21:14.809Z,35.33
2018-04-16T15:23:42.400Z,40.37
2018-04-16T15:26:09.987Z,41.30
2018-04-16T15:28:37.588Z,42.33
2018-04-16T15:31:05.232Z,42.37
2018-04-16T15:33:32.847Z,45.40
2018-04-16T15:36:00.429Z,40.57
2018-04-16T15:38:28.013Z,46.80
2018-04-16T15:40:55.596Z,43.40
2018-04-16T15:43:23.183Z,45.80
2018-04-16T15:45:50.769Z,42.37
2018-04-16T15:48:18.354Z,46.50
2018-04-16T15:50:46.032Z,41.70
2018-04-16T15:53:13.659Z,53.10
2018-04-16T15:55:41.246Z,50.13
2018-04-16T15:58:08.841Z,44.63
2018-04-16T16:00:37.337Z,47.67
2018-04-16T16:03:04.923Z,53.33
2018-04-16T16:05:32.613Z,51.40
2018-04-16T16:08:00.202Z,49.83
2018-04-16T16:10:27.809Z,55.83
2018-04-16T16:12:55.389Z,51.77
2018-04-16T16:15:22.995Z,48.50
2018-04-16T16:17:50.594Z,54.87
2018-04-16T16:20:18.177Z,53.23
2018-04-16T16:22:45.771Z,50.57
2018-04-16T16:25:13.360Z,59.30
2018-04-16T16:27:40.941Z,58.90
2018-04-16T16:30:08.635Z,53.93
2018-04-16T16:32:36.290Z,58.73
2018-04-16T16:35:03.886Z,55.87
2018-04-16T16:37:31.472Z,64.73
2018-04-16T16:39:59.058Z,58.83
2018-04-16T16:42:26.742Z,60.80
2018-04-16T16:44:54.330Z,58.53
2018-04-16T16:47:21.917Z,58.93
2018-04-16T16:49:49.530Z,68.17
2018-04-16T16:52:17.899Z,60.43
2018-04-16T16:54:45.494Z,60.97
2018-04-16T16:57:13.137Z,58.10
2018-04-16T16:59:40.789Z,62.10
2018-04-16T17:02:08.381Z,65.13
2018-04-16T17:04:35.970Z,75.80
2018-04-16T17:07:03.553Z,62.63
2018-04-16T17:09:31.240Z,61.37
2018-04-16T17:11:58.905Z,69.40
2018-04-16T17:14:26.482Z,66.10
2018-04-16T17:16:54.073Z,67.87
2018-04-16T17:19:22.479Z,69.23
2018-04-16T17:21:50.887Z,69.23
2018-04-16T17:24:18.470Z,75.30
2018-04-16T17:26:46.060Z,79.60
2018-04-16T17:29:13.646Z,74.93
2018-04-16T17:31:41.439Z,75.87
2018-04-16T17:34:09.097Z,87.73
2018-04-16T17:36:36.695Z,85.67
2018-04-16T17:39:04.293Z,71.10
2018-04-16T17:41:31.884Z,87.60
2018-04-16T17:43:59.465Z,79.50
2018-04-16T17:46:27.083Z,97.77
2018-04-16T17:48:55.540Z,89.90
2018-04-16T17:51:23.186Z,91.40
2018-04-16T17:53:50.801Z,90.73
2018-04-16T17:56:18.398Z,88.33
2018-04-16T17:58:45.977Z,94.80
2018-04-16T18:01:13.562Z,85.07
2018-04-16T18:03:41.197Z,82.00
2018-04-16T18:06:08.790Z,81.43
2018-04-16T18:08:36.373Z,83.37
2018-04-16T18:11:03.952Z,92.87
2018-04-16T18:13:31.541Z,94.63
2018-04-16T18:15:59.137Z,106.97
2018-04-16T18:18:26.738Z,102.80
2018-04-16T18:20:55.154Z,100.53
2018-04-16T18:23:23.238Z,97.67
2018-04-16T18:25:50.874Z,96.37
2018-04-16T18:28:18.507Z,85.67
2018-04-16T18:30:46.169Z,98.00
2018-04-16T18:33:13.828Z,110.80
2018-04-16T18:35:41.501Z,112.97
2018-04-16T18:38:09.214Z,100.17
2018-04-16T18:40:36.801Z,99.77
2018-04-16T18:43:04.437Z,116.40
2018-04-16T18:45:32.033Z,101.53
2018-04-16T18:47:59.627Z,100.20
2018-04-16T18:50:27.238Z,114.07
2018-04-16T18:52:54.884Z,93.57
2018-04-16T18:55:23.264Z,89.57
2018-04-16T18:57:51.700Z,98.53
2018-04-16T19:00:20.228Z,76.00
2018-04-16T19:02:47.872Z,87.20
2018-04-16T19:05:15.474Z,75.07
2018-04-16T19:07:43.623Z,94.50
2018-04-16T19:10:11.563Z,87.43
2018-04-16T19:12:39.287Z,88.80
2018-04-16T19:15:06.879Z,87.60
2018-04-16T19:17:39.962Z,96.43
2018-04-16T19:20:07.627Z,91.80
2018-04-16T19:22:35.216Z,96.77
2018-04-16T19:25:02.910Z,88.10
2018-04-16T19:27:36.095Z,108.47
2018-04-16T19:30:03.714Z,94.77
2018-04-16T19:32:37.029Z,102.57
2018-04-16T19:35:08.429Z,108.10
2018-04-16T19:37:36.025Z,110.57
2018-04-16T19:40:03.654Z,93.40
2018-04-16T19:42:36.930Z,92.77
2018-04-16T19:45:05.566Z,100.00
2018-04-16T19:47:33.213Z,88.07
2018-04-16T19:50:06.451Z,101.60
2018-04-16T19:52:34.965Z,100.23
2018-04-16T19:55:02.661Z,89.27
2018-04-16T19:57:36.731Z,100.70
2018-04-16T20:00:05.216Z,98.77
2018-04-16T20:02:39.186Z,95.23
2018-04-16T20:05:07.505Z,85.13
2018-04-16T20:07:35.097Z,95.20
2018-04-16T20:10:02.867Z,111.90
2018-04-16T20:12:30.451Z,91.70
2018-04-16T20:14:58.071Z,103.07
2018-04-16T20:17:25.760Z,97.70
2018-04-16T20:19:53.358Z,91.93
2018-04-16T20:22:20.995Z,101.27
2018-04-16T20:24:48.713Z,95.40
2018-04-16T20:27:17.205Z,98.87
2018-04-16T20:29:44.788Z,100.53
2018-04-16T20:32:12.398Z,121.87
2018-04-16T20:34:40.065Z,106.67
2018-04-16T20:37:07.677Z,98.17
2018-04-16T20:39:37.322Z,108.70
2018-04-16T20:42:05.961Z,101.20
2018-04-16T20:44:34.609Z,100.77
2018-04-16T20:47:02.205Z,113.33
2018-04-16T20:49:29.919Z,102.13
2018-04-16T20:51:57.649Z,102.17
2018-04-16T20:54:25.242Z,111.63
2018-04-16T20:56:52.875Z,102.93
2018-04-16T20:59:20.465Z,107.80
2018-04-16T21:01:48.102Z,104.37
2018-04-16T21:04:15.719Z,109.70
2018-04-16T21:06:43.373Z,100.30
2018-04-16T21:09:11.018Z,97.30
2018-04-16T21:11:38.624Z,101.13
2018-04-16T21:14:06.305Z,104.23
2018-04-16T21:16:33.897Z,103.87
2018-04-16T21:19:01.485Z,111.83
2018-04-16T21:21:29.074Z,97.90
2018-04-16T21:23:56.671Z,100.07
2018-04-16T21:26:24.266Z,117.77
2018-04-16T21:28:51.894Z,120.00
2018-04-16T21:31:19.509Z,105.17
2018-04-16T21:33:47.102Z,109.17
2018-04-16T21:36:14.694Z,103.00
2018-04-16T21:38:42.279Z,96.60
2018-04-16T21:41:09.895Z,97.23
2018-04-16T21:43:37.478Z,95.03
2018-04-16T21:46:05.063Z,92.67
2018-04-16T21:48:32.681Z,89.93
2018-04-16T21:51:00.265Z,84.40
2018-04-16T21:53:27.855Z,87.93
2018-04-16T21:55:56.346Z,99.77
2018-04-16T21:58:24.718Z,100.30
2018-04-16T22:00:53.137Z,88.13
2018-04-16T22:03:20.731Z,92.70
2018-04-16T22:05:48.362Z,98.97
2018-04-16T22:08:16.637Z,93.20
2018-04-16T22:10:44.225Z,99.27
2018-04-16T22:13:11.809Z,99.77
2018-04-16T22:15:39.390Z,98.20
2018-04-16T22:18:07.813Z,105.37
2018-04-16T22:20:35.403Z,89.57
2018-04-16T22:23:02.985Z,94.47
2018-04-16T22:25:30.573Z,104.07
2018-04-16T22:27:59.070Z,102.33
2018-04-16T22:30:26.661Z,96.00
2018-04-16T22:32:54.244Z,104.13
2018-04-16T22:35:22.750Z,113.93
2018-04-16T22:37:50.334Z,99.30
2018-04-16T22:40:17.929Z,96.50
2018-04-16T22:42:45.514Z,91.70
2018-04-16T22:45:13.109Z,102.47
2018-04-16T22:47:40.688Z,99.63
2018-04-16T22:50:08.385Z,103.30
2018-04-16T22:52:36.005Z,108.00
2018-04-16T22:55:03.649Z,106.50
2018-04-16T22:57:32.008Z,97.90
2018-04-16T22:59:59.597Z,101.63
2018-04-16T23:02:27.189Z,100.80
2018-04-16T23:04:54.823Z,110.03
2018-04-16T23:07:23.224Z,112.20
2018-04-16T23:09:51.628Z,90.03
2018-04-16T23:12:19.234Z,115.37
2018-04-16T23:14:47.748Z,111.70
2018-04-16T23:17:16.216Z,112.83
2018-04-16T23:19:43.803Z,109.60
2018-04-16T23:22:11.399Z,102.70
2018-04-16T23:24:39.008Z,104.97
2018-04-16T23:27:06.680Z,118.23
2018-04-16T23:29:34.335Z,115.97
2018-04-16T23:32:01.925Z,113.27
2018-04-16T23:34:29.521Z,108.60
2018-04-16T23:36:57.163Z,123.80
2018-04-16T23:39:24.757Z,117.50
2018-04-16T23:41:52.359Z,111.70
2018-04-16T23:44:19.955Z,129.90
2018-04-16T23:46:47.572Z,130.53
2018-04-16T23:49:15.161Z,129.33
2018-04-16T23:51:42.760Z,117.57
2018-04-16T23:54:10.351Z,119.77
2018-04-16T23:56:38.008Z,117.07
2018-04-16T23:59:05.600Z,110.10
